This is the latest recevied weather packets stored in our database for station/object K0WXC-1. If no packets are shown the sender has not sent any weather packets the latest 10 day(s).
| Time | Temp. | Humidity | Pressure | Rain* | Wind** | Luminosity | Snow |
|---|---|---|---|---|---|---|---|
| 1778175808 | 18.89° C | 41% | 1000.7 hPa | 0 mm | 1.79 m/s, 201° | - | - |
| 1778175749 | 18.89° C | 41% | 1000.7 hPa | 0 mm | 1.79 m/s, 201° | - | - |
| 1778175688 | 18.89° C | 41% | 1000.7 hPa | 0 mm | 1.79 m/s, 201° | - | - |
| 1778175628 | 18.33° C | 42% | 1000.8 hPa | 0 mm | 2.24 m/s, 241° | - | - |
| 1778175568 | 18.33° C | 42% | 1000.8 hPa | 0 mm | 2.24 m/s, 241° | - | - |
| 1778175508 | 18.33° C | 42% | 1000.8 hPa | 0 mm | 2.24 m/s, 241° | - | - |
| 1778175448 | 18.33° C | 42% | 1000.8 hPa | 0 mm | 2.24 m/s, 241° | - | - |
| 1778175388 | 18.33° C | 42% | 1000.8 hPa | 0 mm | 2.24 m/s, 241° | - | - |
| 1778175328 | 19.44° C | 41% | 1000.6 hPa | 0 mm | 2.68 m/s, 278° | - | - |
| 1778175268 | 19.44° C | 41% | 1000.6 hPa | 0 mm | 2.68 m/s, 278° | - | - |
| 1778175208 | 19.44° C | 41% | 1000.6 hPa | 0 mm | 2.68 m/s, 278° | - | - |
| 1778175148 | 19.44° C | 41% | 1000.6 hPa | 0 mm | 2.68 m/s, 278° | - | - |
| 1778175088 | 19.44° C | 41% | 1000.6 hPa | 0 mm | 2.68 m/s, 278° | - | - |
| 1778175028 | 19.44° C | 44% | 1000.7 hPa | 0 mm | 0.89 m/s, 155° | - | - |
| 1778174968 | 19.44° C | 44% | 1000.7 hPa | 0 mm | 0.89 m/s, 155° | - | - |
| 1778174908 | 19.44° C | 44% | 1000.7 hPa | 0 mm | 0.89 m/s, 155° | - | - |
| 1778174848 | 19.44° C | 44% | 1000.7 hPa | 0 mm | 0.89 m/s, 155° | - | - |
| 1778174788 | 19.44° C | 44% | 1000.7 hPa | 0 mm | 0.89 m/s, 155° | - | - |
| 1778174728 | 18.89° C | 41% | 1000.8 hPa | 0 mm | 0.45 m/s, 211° | - | - |
| 1778174668 | 18.89° C | 41% | 1000.8 hPa | 0 mm | 0.45 m/s, 211° | - | - |
| 1778174608 | 18.89° C | 41% | 1000.8 hPa | 0 mm | 0.45 m/s, 211° | - | - |
| 1778174548 | 18.89° C | 41% | 1000.8 hPa | 0 mm | 0.45 m/s, 211° | - | - |
| 1778174488 | 18.89° C | 41% | 1000.8 hPa | 0 mm | 0.45 m/s, 211° | - | - |
| 1778174428 | 18.33° C | 43% | 1000.9 hPa | 0 mm | 1.79 m/s, 209° | - | - |
| 1778174369 | 18.33° C | 43% | 1000.9 hPa | 0 mm | 1.79 m/s, 209° | - | - |
* Rain latest hour (hover to see other rain measurements)
** Current wind speed in m/s (hover to see current wind gust speed)